createdAt,value
2023-07-04T00:01:26.352Z,73.34
2023-07-04T00:03:58.199Z,73.70
2023-07-04T00:06:31.123Z,73.80
2023-07-04T00:08:59.279Z,74.03
2023-07-04T00:11:28.705Z,74.29
2023-07-04T00:13:56.987Z,74.19
2023-07-04T00:16:24.908Z,74.09
2023-07-04T00:18:52.805Z,74.13
2023-07-04T00:21:20.711Z,74.27
2023-07-04T00:23:54.084Z,74.24
2023-07-04T00:26:26.660Z,74.30
2023-07-04T00:28:55.257Z,74.20
2023-07-04T00:31:25.100Z,74.65
2023-07-04T00:33:54.560Z,74.72
2023-07-04T00:36:23.492Z,74.73
2023-07-04T00:38:57.892Z,74.82
2023-07-04T00:41:29.118Z,74.78
2023-07-04T00:44:20.701Z,74.80
2023-07-04T00:47:08.563Z,74.91
2023-07-04T00:49:43.387Z,74.94
2023-07-04T00:52:25.068Z,74.99
2023-07-04T00:55:02.672Z,74.93
2023-07-04T00:57:32.686Z,74.75
2023-07-04T01:00:24.711Z,74.84
2023-07-04T01:03:14.971Z,74.94
2023-07-04T01:06:13.427Z,74.91
2023-07-04T01:08:44.744Z,74.94
2023-07-04T01:11:20.361Z,75.00
2023-07-04T01:13:48.184Z,74.87
2023-07-04T01:16:20.089Z,74.96
2023-07-04T01:18:54.035Z,74.82
2023-07-04T01:21:27.028Z,74.85
2023-07-04T01:24:10.942Z,74.70
2023-07-04T01:26:42.985Z,74.62
2023-07-04T01:29:14.676Z,74.57
2023-07-04T01:31:45.276Z,74.38
2023-07-04T01:34:15.451Z,74.24
2023-07-04T01:36:43.762Z,74.33
2023-07-04T01:39:16.507Z,74.22
2023-07-04T01:41:46.876Z,74.20
2023-07-04T01:44:17.511Z,74.23
2023-07-04T01:46:46.332Z,74.35
2023-07-04T01:49:14.199Z,74.43
2023-07-04T01:51:43.043Z,74.50
2023-07-04T01:54:18.107Z,74.44
2023-07-04T01:56:48.752Z,74.42
2023-07-04T01:59:16.585Z,74.48
2023-07-04T02:01:44.563Z,74.59
2023-07-04T02:04:13.068Z,74.54
2023-07-04T02:06:40.820Z,74.41
2023-07-04T02:09:08.721Z,74.34
2023-07-04T02:11:38.036Z,74.41
2023-07-04T02:14:07.285Z,74.50
2023-07-04T02:16:35.136Z,74.49
2023-07-04T02:19:03.225Z,74.61
2023-07-04T02:21:31.047Z,74.66
2023-07-04T02:24:00.456Z,74.62
2023-07-04T02:26:28.570Z,74.60
2023-07-04T02:28:57.511Z,74.83
2023-07-04T02:31:25.867Z,74.85
2023-07-04T02:33:54.447Z,74.87
2023-07-04T02:36:22.695Z,74.78
2023-07-04T02:38:51.524Z,74.81
2023-07-04T02:41:19.694Z,74.74
2023-07-04T02:43:48.038Z,74.87
2023-07-04T02:46:15.910Z,74.82
2023-07-04T02:48:45.634Z,74.82
2023-07-04T02:51:13.500Z,74.73
2023-07-04T02:53:41.863Z,74.52
2023-07-04T02:56:09.695Z,74.51
2023-07-04T02:58:38.920Z,74.42
2023-07-04T03:01:07.943Z,74.52
2023-07-04T03:03:36.139Z,74.58
2023-07-04T03:06:06.159Z,74.61
2023-07-04T03:08:34.309Z,74.54
2023-07-04T03:11:02.765Z,74.52
2023-07-04T03:13:33.199Z,74.75
2023-07-04T03:16:02.041Z,74.90
2023-07-04T03:18:29.926Z,74.93
2023-07-04T03:20:57.786Z,75.05
2023-07-04T03:23:25.606Z,74.95
2023-07-04T03:25:53.453Z,75.04
2023-07-04T03:28:21.463Z,75.05
2023-07-04T03:30:49.825Z,75.01
2023-07-04T03:33:17.797Z,74.77
2023-07-04T03:35:58.195Z,74.70
2023-07-04T03:38:27.926Z,74.45
2023-07-04T03:40:56.078Z,74.37
2023-07-04T03:43:24.585Z,74.29
2023-07-04T03:45:53.154Z,74.24
2023-07-04T03:48:23.719Z,74.27
2023-07-04T03:50:52.042Z,74.10
2023-07-04T03:53:20.101Z,74.10
2023-07-04T03:55:50.700Z,74.16
2023-07-04T03:58:21.244Z,74.18
2023-07-04T04:00:51.370Z,74.35
2023-07-04T04:03:19.789Z,74.27
2023-07-04T04:05:48.149Z,74.45
2023-07-04T04:08:15.972Z,74.43
2023-07-04T04:10:44.382Z,74.22
2023-07-04T04:13:12.453Z,73.93
2023-07-04T04:15:40.294Z,73.76
2023-07-04T04:18:08.118Z,73.78
2023-07-04T04:20:35.981Z,73.89
2023-07-04T04:23:03.824Z,73.84
2023-07-04T04:25:38.999Z,74.39
2023-07-04T04:28:08.661Z,75.27
2023-07-04T04:30:37.436Z,75.22
2023-07-04T04:33:05.549Z,73.17
2023-07-04T04:35:34.503Z,69.56
2023-07-04T04:38:02.327Z,65.88
2023-07-04T04:40:30.331Z,63.30
2023-07-04T04:42:58.303Z,61.36
2023-07-04T04:45:26.113Z,61.12
2023-07-04T04:47:54.404Z,60.99
2023-07-04T04:50:31.752Z,60.87
2023-07-04T04:53:01.074Z,61.08
2023-07-04T04:55:29.823Z,61.42
2023-07-04T04:57:57.866Z,61.73
2023-07-04T05:00:25.665Z,62.13
2023-07-04T05:02:56.199Z,62.58
2023-07-04T05:05:24.318Z,63.00
2023-07-04T05:07:52.171Z,63.26
2023-07-04T05:10:20.080Z,63.69
2023-07-04T05:12:47.971Z,64.19
2023-07-04T05:15:15.826Z,63.78
2023-07-04T05:17:43.674Z,63.59
2023-07-04T05:20:15.424Z,63.51
2023-07-04T05:22:46.391Z,63.72
2023-07-04T05:25:14.373Z,63.84
2023-07-04T05:27:43.224Z,64.17
2023-07-04T05:30:12.873Z,64.56
2023-07-04T05:32:41.169Z,65.87
2023-07-04T05:35:09.329Z,64.46
2023-07-04T05:37:37.161Z,63.06
2023-07-04T05:40:12.221Z,62.16
2023-07-04T05:42:42.729Z,61.56
2023-07-04T05:45:10.710Z,59.92
2023-07-04T05:47:38.696Z,59.53
2023-07-04T05:50:08.778Z,59.50
2023-07-04T05:52:36.717Z,58.84
2023-07-04T05:55:05.113Z,59.00
2023-07-04T05:57:33.765Z,59.45
2023-07-04T06:00:01.747Z,59.32
2023-07-04T06:02:41.902Z,57.15
2023-07-04T06:05:11.776Z,56.67
2023-07-04T06:07:39.788Z,57.32
2023-07-04T06:10:08.659Z,56.79
2023-07-04T06:12:37.001Z,56.63
2023-07-04T06:15:05.458Z,56.16
2023-07-04T06:17:33.941Z,55.87
2023-07-04T06:20:02.786Z,55.86
2023-07-04T06:22:32.764Z,56.55
2023-07-04T06:25:01.802Z,55.61
2023-07-04T06:27:30.814Z,55.94
2023-07-04T06:29:59.286Z,55.44
2023-07-04T06:32:27.889Z,55.13
2023-07-04T06:34:55.872Z,55.86
2023-07-04T06:37:23.802Z,55.87
2023-07-04T06:39:52.077Z,55.68
2023-07-04T06:42:20.012Z,54.83
2023-07-04T06:44:50.385Z,53.64
2023-07-04T06:47:18.523Z,52.92
2023-07-04T06:49:47.972Z,52.57
2023-07-04T06:52:18.839Z,52.11
2023-07-04T06:54:52.861Z,51.55
2023-07-04T06:57:24.851Z,51.34
2023-07-04T06:59:57.879Z,50.44
2023-07-04T07:02:29.920Z,49.05
2023-07-04T07:05:02.861Z,48.30
2023-07-04T07:07:33.882Z,48.11
2023-07-04T07:10:05.873Z,48.45
2023-07-04T07:12:37.887Z,47.89
2023-07-04T07:15:09.911Z,46.94
2023-07-04T07:17:41.143Z,46.54
2023-07-04T07:20:12.360Z,45.69
2023-07-04T07:22:42.897Z,45.01
2023-07-04T07:25:14.941Z,44.92
2023-07-04T07:27:46.906Z,44.90
2023-07-04T07:30:18.044Z,44.74
2023-07-04T07:32:49.902Z,44.58
2023-07-04T07:35:21.938Z,44.13
2023-07-04T07:37:53.908Z,43.33
2023-07-04T07:40:26.011Z,43.19
2023-07-04T07:42:57.928Z,43.12
2023-07-04T07:45:29.957Z,43.30
2023-07-04T07:48:02.084Z,43.14
2023-07-04T07:58:06.015Z,42.03
2023-07-04T08:00:33.994Z,41.51
2023-07-04T08:03:02.363Z,41.46
2023-07-04T08:05:30.444Z,41.55
2023-07-04T08:07:58.307Z,41.89
2023-07-04T08:10:26.281Z,41.51
2023-07-04T08:12:54.996Z,40.64
2023-07-04T08:15:23.993Z,41.25
2023-07-04T08:17:55.252Z,41.71
2023-07-04T08:20:25.414Z,41.31
2023-07-04T08:22:53.627Z,41.45
2023-07-04T08:25:25.596Z,41.57
2023-07-04T08:27:56.078Z,40.46
2023-07-04T08:30:24.248Z,40.49
2023-07-04T08:32:56.092Z,40.65
2023-07-04T08:35:25.168Z,39.59
2023-07-04T08:37:53.798Z,39.98
2023-07-04T08:40:29.856Z,39.95
2023-07-04T08:43:05.441Z,40.08
2023-07-04T08:45:33.842Z,39.93
2023-07-04T08:48:04.004Z,39.61
2023-07-04T08:50:40.404Z,40.01
2023-07-04T08:53:16.457Z,39.40
2023-07-04T08:55:54.248Z,38.57
2023-07-04T08:58:28.329Z,38.64
2023-07-04T09:01:00.404Z,38.59
2023-07-04T09:03:51.929Z,38.15
2023-07-04T09:06:58.106Z,38.56
2023-07-04T09:09:42.726Z,38.88
2023-07-04T09:12:10.972Z,38.84
2023-07-04T09:14:52.618Z,37.95
2023-07-04T09:17:30.278Z,37.69
2023-07-04T09:20:00.036Z,38.09
2023-07-04T09:22:29.137Z,38.05
2023-07-04T09:24:57.503Z,38.20
2023-07-04T09:27:26.106Z,37.63
2023-07-04T09:29:54.067Z,38.04
2023-07-04T09:32:22.038Z,38.12
2023-07-04T09:34:55.426Z,38.25
2023-07-04T09:37:25.835Z,37.73
2023-07-04T09:39:57.535Z,37.24
2023-07-04T09:42:47.525Z,37.43
2023-07-04T09:45:24.092Z,37.66
2023-07-04T09:47:53.318Z,37.63
2023-07-04T09:50:30.799Z,37.42
2023-07-04T09:53:22.519Z,37.73
2023-07-04T09:56:02.671Z,37.11
2023-07-04T09:58:31.599Z,37.26
2023-07-04T10:01:16.476Z,36.91
2023-07-04T10:03:50.034Z,37.14
2023-07-04T10:06:32.397Z,37.12
2023-07-04T10:09:03.575Z,37.01
2023-07-04T10:11:41.164Z,36.62
2023-07-04T10:14:11.876Z,36.81
2023-07-04T10:16:51.810Z,36.31
2023-07-04T10:19:23.132Z,36.36
2023-07-04T10:21:52.956Z,36.68
2023-07-04T10:24:25.017Z,36.43
2023-07-04T10:27:00.450Z,36.33
2023-07-04T10:29:38.269Z,36.00
2023-07-04T10:32:11.237Z,36.33
2023-07-04T10:34:41.292Z,35.92
2023-07-04T10:37:16.193Z,35.97
2023-07-04T10:39:44.784Z,35.75
2023-07-04T10:42:37.491Z,35.61
2023-07-04T10:45:07.915Z,35.22
2023-07-04T10:47:39.181Z,35.62
2023-07-04T10:50:15.274Z,36.16
2023-07-04T10:52:48.559Z,35.96
2023-07-04T10:55:47.782Z,35.54
2023-07-04T10:58:20.131Z,35.49
2023-07-04T11:01:00.210Z,35.23
2023-07-04T11:03:51.444Z,35.28
2023-07-04T11:06:30.938Z,35.61
2023-07-04T11:09:01.537Z,36.00
2023-07-04T11:11:31.274Z,35.18
2023-07-04T11:14:09.140Z,35.07
2023-07-04T11:16:43.797Z,34.87
2023-07-04T11:19:22.009Z,34.34
2023-07-04T11:22:04.024Z,34.64
2023-07-04T11:24:37.349Z,34.86
2023-07-04T11:27:15.370Z,35.04
2023-07-04T11:29:59.912Z,34.23
2023-07-04T11:32:34.066Z,33.72
2023-07-04T11:35:15.798Z,34.01
2023-07-04T11:38:03.205Z,33.98
2023-07-04T11:40:42.065Z,34.00
2023-07-04T11:43:25.998Z,33.75
2023-07-04T11:45:57.156Z,33.35
2023-07-04T11:48:29.568Z,33.27
2023-07-04T11:51:08.046Z,33.08
2023-07-04T11:53:49.530Z,32.67
2023-07-04T11:56:34.889Z,32.45
2023-07-04T11:59:12.277Z,32.47
2023-07-04T12:01:56.326Z,32.76
2023-07-04T12:04:48.081Z,32.46
2023-07-04T12:07:40.683Z,32.40
2023-07-04T12:10:16.456Z,32.84
2023-07-04T12:12:45.834Z,32.56
2023-07-04T12:15:28.056Z,32.52
2023-07-04T12:18:00.151Z,32.18
2023-07-04T12:20:31.805Z,32.69
2023-07-04T12:23:02.682Z,32.33
2023-07-04T12:25:39.452Z,31.67
2023-07-04T12:28:12.445Z,31.57
2023-07-04T12:30:58.337Z,31.97
2023-07-04T12:33:32.646Z,31.21
2023-07-04T12:36:11.012Z,31.60
2023-07-04T12:38:45.539Z,31.47
2023-07-04T12:41:27.278Z,30.99
2023-07-04T12:51:45.524Z,30.81
2023-07-04T12:54:16.000Z,30.58
2023-07-04T12:56:48.293Z,30.70
2023-07-04T12:59:34.679Z,30.91
2023-07-04T13:02:14.955Z,31.18
2023-07-04T13:04:43.944Z,31.38
2023-07-04T13:07:12.566Z,30.79
2023-07-04T13:09:44.959Z,30.69
2023-07-04T13:12:13.769Z,30.92
2023-07-04T13:14:41.806Z,30.72
2023-07-04T13:17:12.565Z,30.79
2023-07-04T13:19:44.823Z,30.85
2023-07-04T13:22:16.025Z,30.81
2023-07-04T13:25:13.828Z,30.83
2023-07-04T13:27:31.814Z,30.54
2023-07-04T13:35:38.110Z,30.51
2023-07-04T13:40:37.970Z,30.40
2023-07-04T13:45:44.297Z,29.77
2023-07-04T13:48:12.582Z,29.57
2023-07-04T13:50:40.718Z,29.76
2023-07-04T13:55:41.862Z,30.13
2023-07-04T13:58:10.215Z,29.65
2023-07-04T14:03:01.309Z,29.65
2023-07-04T14:06:00.491Z,29.81
2023-07-04T14:08:31.536Z,29.75
2023-07-04T14:11:09.076Z,29.43
2023-07-04T14:13:38.495Z,29.71
2023-07-04T14:21:16.161Z,29.30
2023-07-04T14:23:44.477Z,29.36
2023-07-04T14:26:16.548Z,29.35
2023-07-04T14:28:45.987Z,29.49
2023-07-04T14:31:14.449Z,30.13
2023-07-04T14:33:42.706Z,29.75
2023-07-04T14:36:10.727Z,29.44
2023-07-04T14:38:38.676Z,29.46
2023-07-04T14:43:42.778Z,29.54
2023-07-04T14:46:10.922Z,30.36
2023-07-04T14:48:39.254Z,29.74
2023-07-04T14:51:10.827Z,29.87
2023-07-04T14:53:39.462Z,29.83
2023-07-04T14:56:10.808Z,29.68
2023-07-04T14:58:39.686Z,29.25
2023-07-04T15:01:08.391Z,28.90
2023-07-04T15:03:36.503Z,30.00
2023-07-04T15:06:07.903Z,29.79
2023-07-04T15:08:37.258Z,29.76
2023-07-04T15:11:06.547Z,29.74
2023-07-04T15:13:35.251Z,29.80
2023-07-04T15:16:07.402Z,29.87
2023-07-04T15:18:38.324Z,29.42
2023-07-04T15:21:08.616Z,30.19
2023-07-04T15:23:37.803Z,30.08
2023-07-04T15:26:24.989Z,30.13
2023-07-04T15:28:55.824Z,29.51
2023-07-04T15:31:24.340Z,29.51
2023-07-04T15:33:53.587Z,29.70
2023-07-04T15:36:22.624Z,29.70
2023-07-04T15:38:50.816Z,29.12
2023-07-04T15:41:22.716Z,29.75
2023-07-04T15:43:50.611Z,30.38
2023-07-04T15:46:19.933Z,30.46
2023-07-04T15:48:48.189Z,30.00
2023-07-04T15:51:19.265Z,30.43
2023-07-04T15:53:48.585Z,30.49
2023-07-04T15:56:19.926Z,30.75
2023-07-04T16:06:24.492Z,32.04
2023-07-04T16:08:52.465Z,32.26
2023-07-04T16:11:20.763Z,32.86
2023-07-04T16:13:49.299Z,32.89
2023-07-04T16:16:18.173Z,32.62
2023-07-04T16:18:46.379Z,33.07
2023-07-04T16:21:14.260Z,33.32
2023-07-04T16:23:42.517Z,33.53
2023-07-04T16:26:12.174Z,32.91
2023-07-04T16:28:40.494Z,33.35
2023-07-04T16:31:12.462Z,33.22
2023-07-04T16:33:41.326Z,32.99
2023-07-04T16:36:09.846Z,33.17
2023-07-04T16:38:38.664Z,33.38
2023-07-04T16:41:13.058Z,33.30
2023-07-04T16:43:42.434Z,33.47
2023-07-04T16:46:10.981Z,33.58
2023-07-04T16:48:39.525Z,33.73
2023-07-04T16:51:10.276Z,34.09
2023-07-04T16:53:39.496Z,34.28
2023-07-04T16:56:08.856Z,34.23
2023-07-04T16:58:37.859Z,34.25
2023-07-04T17:01:06.475Z,34.42
2023-07-04T17:03:34.706Z,34.33
2023-07-04T17:06:05.525Z,34.70
2023-07-04T17:08:34.906Z,34.75
2023-07-04T17:11:07.328Z,35.04
2023-07-04T17:13:39.898Z,34.81
2023-07-04T17:16:10.634Z,34.65
2023-07-04T17:18:39.767Z,34.77
2023-07-04T17:21:09.047Z,35.39
2023-07-04T17:23:37.174Z,36.07
2023-07-04T17:26:06.266Z,36.81
2023-07-04T17:28:35.346Z,37.92
2023-07-04T17:31:07.141Z,38.22
2023-07-04T17:33:36.757Z,38.08
